sensor_id;sensor_type;location;lat;lon;timestamp;P1;durP1;ratioP1;P2;durP2;ratioP2
56752;SDS011;42627;42.646;23.642;2022-12-26T00:01:12;51.60;;;16.63;;
56752;SDS011;42627;42.646;23.642;2022-12-26T00:03:13;44.22;;;15.20;;
56752;SDS011;42627;42.646;23.642;2022-12-26T00:05:14;19.23;;;9.80;;
56752;SDS011;42627;42.646;23.642;2022-12-26T00:07:15;16.42;;;7.78;;
56752;SDS011;42627;42.646;23.642;2022-12-26T00:09:16;17.42;;;8.45;;
56752;SDS011;42627;42.646;23.642;2022-12-26T00:11:18;22.88;;;8.32;;
56752;SDS011;42627;42.646;23.642;2022-12-26T00:13:19;22.90;;;9.82;;
56752;SDS011;42627;42.646;23.642;2022-12-26T00:15:20;18.65;;;8.98;;
56752;SDS011;42627;42.646;23.642;2022-12-26T00:17:21;27.17;;;8.77;;
56752;SDS011;42627;42.646;23.642;2022-12-26T00:19:22;21.38;;;9.10;;
56752;SDS011;42627;42.646;23.642;2022-12-26T00:21:23;24.67;;;8.60;;
56752;SDS011;42627;42.646;23.642;2022-12-26T00:23:26;14.55;;;6.97;;
56752;SDS011;42627;42.646;23.642;2022-12-26T00:25:27;14.65;;;5.72;;
56752;SDS011;42627;42.646;23.642;2022-12-26T00:27:29;9.82;;;5.20;;
56752;SDS011;42627;42.646;23.642;2022-12-26T00:29:30;9.05;;;4.43;;
56752;SDS011;42627;42.646;23.642;2022-12-26T00:31:31;6.93;;;4.50;;
56752;SDS011;42627;42.646;23.642;2022-12-26T00:33:34;9.35;;;5.32;;
56752;SDS011;42627;42.646;23.642;2022-12-26T00:35:37;13.25;;;5.65;;
56752;SDS011;42627;42.646;23.642;2022-12-26T00:37:39;8.63;;;4.80;;
56752;SDS011;42627;42.646;23.642;2022-12-26T00:39:40;12.73;;;5.90;;
56752;SDS011;42627;42.646;23.642;2022-12-26T00:41:41;9.00;;;5.07;;
56752;SDS011;42627;42.646;23.642;2022-12-26T00:43:43;9.30;;;4.75;;
56752;SDS011;42627;42.646;23.642;2022-12-26T00:45:44;11.45;;;4.75;;
56752;SDS011;42627;42.646;23.642;2022-12-26T00:47:47;14.00;;;4.40;;
56752;SDS011;42627;42.646;23.642;2022-12-26T00:49:48;19.70;;;7.07;;
56752;SDS011;42627;42.646;23.642;2022-12-26T00:51:49;9.15;;;4.22;;
56752;SDS011;42627;42.646;23.642;2022-12-26T00:53:55;6.10;;;3.58;;
56752;SDS011;42627;42.646;23.642;2022-12-26T00:55:57;10.30;;;5.05;;
56752;SDS011;42627;42.646;23.642;2022-12-26T00:57:58;6.45;;;3.30;;
56752;SDS011;42627;42.646;23.642;2022-12-26T00:59:59;8.77;;;4.18;;
56752;SDS011;42627;42.646;23.642;2022-12-26T01:02:00;8.23;;;3.85;;
56752;SDS011;42627;42.646;23.642;2022-12-26T01:04:02;8.60;;;3.38;;
56752;SDS011;42627;42.646;23.642;2022-12-26T01:06:06;6.47;;;3.38;;
56752;SDS011;42627;42.646;23.642;2022-12-26T01:08:07;6.55;;;3.33;;
56752;SDS011;42627;42.646;23.642;2022-12-26T01:10:10;6.25;;;2.90;;
56752;SDS011;42627;42.646;23.642;2022-12-26T01:12:11;6.22;;;3.42;;
56752;SDS011;42627;42.646;23.642;2022-12-26T01:14:13;10.15;;;3.47;;
56752;SDS011;42627;42.646;23.642;2022-12-26T01:16:15;8.50;;;4.40;;
56752;SDS011;42627;42.646;23.642;2022-12-26T01:18:18;6.28;;;3.75;;
56752;SDS011;42627;42.646;23.642;2022-12-26T01:20:19;13.43;;;3.25;;
56752;SDS011;42627;42.646;23.642;2022-12-26T01:22:21;8.85;;;3.60;;
56752;SDS011;42627;42.646;23.642;2022-12-26T01:24:22;5.95;;;2.85;;
56752;SDS011;42627;42.646;23.642;2022-12-26T01:26:23;6.88;;;3.33;;
56752;SDS011;42627;42.646;23.642;2022-12-26T01:28:24;3.88;;;2.58;;
56752;SDS011;42627;42.646;23.642;2022-12-26T01:30:25;8.88;;;4.15;;
56752;SDS011;42627;42.646;23.642;2022-12-26T01:32:26;4.97;;;3.13;;
56752;SDS011;42627;42.646;23.642;2022-12-26T01:34:27;7.55;;;3.42;;
56752;SDS011;42627;42.646;23.642;2022-12-26T01:36:28;9.75;;;3.50;;
56752;SDS011;42627;42.646;23.642;2022-12-26T01:38:29;6.18;;;3.30;;
56752;SDS011;42627;42.646;23.642;2022-12-26T01:40:30;9.00;;;3.55;;
56752;SDS011;42627;42.646;23.642;2022-12-26T01:42:36;6.65;;;3.50;;
56752;SDS011;42627;42.646;23.642;2022-12-26T01:46:57;6.97;;;3.75;;
56752;SDS011;42627;42.646;23.642;2022-12-26T01:48:59;6.75;;;4.05;;
56752;SDS011;42627;42.646;23.642;2022-12-26T01:51:01;6.10;;;3.80;;
56752;SDS011;42627;42.646;23.642;2022-12-26T01:53:09;4.90;;;3.60;;
56752;SDS011;42627;42.646;23.642;2022-12-26T01:55:11;7.53;;;3.72;;
56752;SDS011;42627;42.646;23.642;2022-12-26T01:57:16;6.97;;;4.13;;
56752;SDS011;42627;42.646;23.642;2022-12-26T01:59:21;7.47;;;3.72;;
56752;SDS011;42627;42.646;23.642;2022-12-26T02:01:24;5.60;;;2.25;;
56752;SDS011;42627;42.646;23.642;2022-12-26T02:03:26;10.35;;;2.97;;
56752;SDS011;42627;42.646;23.642;2022-12-26T02:05:46;7.40;;;3.90;;
56752;SDS011;42627;42.646;23.642;2022-12-26T02:07:52;9.13;;;3.42;;
56752;SDS011;42627;42.646;23.642;2022-12-26T02:09:53;8.25;;;4.15;;
56752;SDS011;42627;42.646;23.642;2022-12-26T02:11:58;7.63;;;3.58;;
56752;SDS011;42627;42.646;23.642;2022-12-26T02:14:01;10.55;;;3.67;;
56752;SDS011;42627;42.646;23.642;2022-12-26T02:16:04;8.10;;;3.15;;
56752;SDS011;42627;42.646;23.642;2022-12-26T02:18:06;9.88;;;4.15;;
56752;SDS011;42627;42.646;23.642;2022-12-26T02:24:44;12.38;;;5.20;;
56752;SDS011;42627;42.646;23.642;2022-12-26T02:29:16;11.68;;;5.57;;
56752;SDS011;42627;42.646;23.642;2022-12-26T02:37:48;8.60;;;3.38;;
56752;SDS011;42627;42.646;23.642;2022-12-26T02:46:42;5.63;;;3.15;;
56752;SDS011;42627;42.646;23.642;2022-12-26T02:53:44;10.00;;;4.70;;
56752;SDS011;42627;42.646;23.642;2022-12-26T02:56:12;8.70;;;4.35;;
56752;SDS011;42627;42.646;23.642;2022-12-26T02:58:39;12.63;;;5.38;;
56752;SDS011;42627;42.646;23.642;2022-12-26T03:01:01;8.73;;;4.63;;
56752;SDS011;42627;42.646;23.642;2022-12-26T03:03:24;10.63;;;5.05;;
56752;SDS011;42627;42.646;23.642;2022-12-26T03:05:56;7.63;;;3.17;;
56752;SDS011;42627;42.646;23.642;2022-12-26T03:08:19;5.72;;;3.65;;
56752;SDS011;42627;42.646;23.642;2022-12-26T03:10:40;6.43;;;3.47;;
56752;SDS011;42627;42.646;23.642;2022-12-26T03:13:02;5.57;;;3.95;;
56752;SDS011;42627;42.646;23.642;2022-12-26T03:15:12;10.25;;;4.68;;
56752;SDS011;42627;42.646;23.642;2022-12-26T03:17:16;9.77;;;4.28;;
56752;SDS011;42627;42.646;23.642;2022-12-26T03:19:19;9.63;;;4.00;;
56752;SDS011;42627;42.646;23.642;2022-12-26T03:21:21;7.85;;;3.83;;
56752;SDS011;42627;42.646;23.642;2022-12-26T03:23:23;11.10;;;3.83;;
56752;SDS011;42627;42.646;23.642;2022-12-26T03:27:47;8.40;;;4.40;;
56752;SDS011;42627;42.646;23.642;2022-12-26T03:29:48;9.52;;;3.67;;
56752;SDS011;42627;42.646;23.642;2022-12-26T03:32:09;8.90;;;3.60;;
56752;SDS011;42627;42.646;23.642;2022-12-26T03:34:10;9.90;;;3.45;;
56752;SDS011;42627;42.646;23.642;2022-12-26T03:38:22;11.05;;;4.55;;
56752;SDS011;42627;42.646;23.642;2022-12-26T03:40:30;9.32;;;4.00;;
56752;SDS011;42627;42.646;23.642;2022-12-26T03:45:27;7.50;;;4.00;;
56752;SDS011;42627;42.646;23.642;2022-12-26T03:47:52;10.20;;;6.63;;
56752;SDS011;42627;42.646;23.642;2022-12-26T03:50:21;9.35;;;3.55;;
56752;SDS011;42627;42.646;23.642;2022-12-26T03:53:28;11.40;;;5.10;;
56752;SDS011;42627;42.646;23.642;2022-12-26T03:57:54;5.40;;;2.80;;
56752;SDS011;42627;42.646;23.642;2022-12-26T04:00:15;14.68;;;7.22;;
56752;SDS011;42627;42.646;23.642;2022-12-26T04:02:35;9.02;;;4.63;;
56752;SDS011;42627;42.646;23.642;2022-12-26T04:04:56;7.45;;;3.50;;
56752;SDS011;42627;42.646;23.642;2022-12-26T04:07:19;11.52;;;4.55;;
56752;SDS011;42627;42.646;23.642;2022-12-26T04:12:31;5.30;;;3.55;;
56752;SDS011;42627;42.646;23.642;2022-12-26T04:14:55;4.68;;;2.75;;
56752;SDS011;42627;42.646;23.642;2022-12-26T04:19:52;6.72;;;3.85;;
56752;SDS011;42627;42.646;23.642;2022-12-26T04:24:21;5.18;;;3.88;;
56752;SDS011;42627;42.646;23.642;2022-12-26T04:26:43;9.23;;;3.45;;
56752;SDS011;42627;42.646;23.642;2022-12-26T04:29:05;4.47;;;3.05;;
56752;SDS011;42627;42.646;23.642;2022-12-26T04:31:29;5.70;;;3.03;;
56752;SDS011;42627;42.646;23.642;2022-12-26T04:33:50;5.28;;;2.65;;
56752;SDS011;42627;42.646;23.642;2022-12-26T04:36:31;3.92;;;2.83;;
56752;SDS011;42627;42.646;23.642;2022-12-26T04:38:53;4.20;;;1.98;;
56752;SDS011;42627;42.646;23.642;2022-12-26T04:41:13;4.05;;;1.92;;
56752;SDS011;42627;42.646;23.642;2022-12-26T04:43:33;7.07;;;3.28;;
56752;SDS011;42627;42.646;23.642;2022-12-26T04:45:55;3.80;;;2.65;;
56752;SDS011;42627;42.646;23.642;2022-12-26T04:47:56;5.80;;;3.08;;
56752;SDS011;42627;42.646;23.642;2022-12-26T04:50:16;4.07;;;2.25;;
56752;SDS011;42627;42.646;23.642;2022-12-26T04:52:18;8.98;;;4.22;;
56752;SDS011;42627;42.646;23.642;2022-12-26T04:54:19;10.95;;;3.42;;
56752;SDS011;42627;42.646;23.642;2022-12-26T04:56:20;5.22;;;3.72;;
56752;SDS011;42627;42.646;23.642;2022-12-26T04:58:21;8.30;;;4.07;;
56752;SDS011;42627;42.646;23.642;2022-12-26T05:00:23;5.10;;;3.25;;
56752;SDS011;42627;42.646;23.642;2022-12-26T05:02:26;12.75;;;2.80;;
56752;SDS011;42627;42.646;23.642;2022-12-26T05:04:46;3.72;;;3.05;;
56752;SDS011;42627;42.646;23.642;2022-12-26T05:07:09;4.05;;;1.58;;
56752;SDS011;42627;42.646;23.642;2022-12-26T05:09:30;2.63;;;1.75;;
56752;SDS011;42627;42.646;23.642;2022-12-26T05:11:33;5.25;;;2.67;;
56752;SDS011;42627;42.646;23.642;2022-12-26T05:13:35;4.05;;;2.03;;
56752;SDS011;42627;42.646;23.642;2022-12-26T05:15:36;4.05;;;2.60;;
56752;SDS011;42627;42.646;23.642;2022-12-26T05:17:57;47.17;;;14.70;;
56752;SDS011;42627;42.646;23.642;2022-12-26T05:20:16;95.03;;;32.00;;
56752;SDS011;42627;42.646;23.642;2022-12-26T05:22:37;102.88;;;33.67;;
56752;SDS011;42627;42.646;23.642;2022-12-26T05:24:57;77.43;;;23.88;;
56752;SDS011;42627;42.646;23.642;2022-12-26T05:27:17;27.70;;;11.02;;
56752;SDS011;42627;42.646;23.642;2022-12-26T05:29:37;42.28;;;13.13;;
56752;SDS011;42627;42.646;23.642;2022-12-26T05:31:38;41.33;;;15.98;;
56752;SDS011;42627;42.646;23.642;2022-12-26T05:33:39;46.83;;;17.38;;
56752;SDS011;42627;42.646;23.642;2022-12-26T05:35:59;18.48;;;8.43;;
56752;SDS011;42627;42.646;23.642;2022-12-26T05:38:00;56.55;;;17.77;;
56752;SDS011;42627;42.646;23.642;2022-12-26T05:40:01;68.60;;;23.15;;
56752;SDS011;42627;42.646;23.642;2022-12-26T05:42:02;29.85;;;8.68;;
56752;SDS011;42627;42.646;23.642;2022-12-26T05:44:04;9.60;;;4.82;;
56752;SDS011;42627;42.646;23.642;2022-12-26T05:46:05;11.38;;;5.13;;
56752;SDS011;42627;42.646;23.642;2022-12-26T05:48:06;13.32;;;5.93;;
56752;SDS011;42627;42.646;23.642;2022-12-26T05:50:07;40.17;;;13.30;;
56752;SDS011;42627;42.646;23.642;2022-12-26T05:52:08;26.23;;;10.30;;
56752;SDS011;42627;42.646;23.642;2022-12-26T05:54:09;19.60;;;9.40;;
56752;SDS011;42627;42.646;23.642;2022-12-26T05:56:11;14.75;;;6.70;;
56752;SDS011;42627;42.646;23.642;2022-12-26T05:58:12;14.27;;;6.70;;
56752;SDS011;42627;42.646;23.642;2022-12-26T06:00:13;25.77;;;11.23;;
56752;SDS011;42627;42.646;23.642;2022-12-26T06:02:15;35.35;;;13.60;;
56752;SDS011;42627;42.646;23.642;2022-12-26T06:04:16;28.25;;;12.70;;
56752;SDS011;42627;42.646;23.642;2022-12-26T06:06:17;40.80;;;16.98;;
56752;SDS011;42627;42.646;23.642;2022-12-26T06:08:18;33.38;;;14.80;;
56752;SDS011;42627;42.646;23.642;2022-12-26T06:10:22;37.85;;;15.38;;
56752;SDS011;42627;42.646;23.642;2022-12-26T06:12:25;46.60;;;16.38;;
56752;SDS011;42627;42.646;23.642;2022-12-26T06:14:26;50.97;;;18.42;;
56752;SDS011;42627;42.646;23.642;2022-12-26T06:16:30;31.95;;;12.43;;
56752;SDS011;42627;42.646;23.642;2022-12-26T06:18:31;23.33;;;10.88;;
56752;SDS011;42627;42.646;23.642;2022-12-26T06:20:32;30.50;;;11.05;;
56752;SDS011;42627;42.646;23.642;2022-12-26T06:22:36;23.25;;;9.85;;
56752;SDS011;42627;42.646;23.642;2022-12-26T06:24:37;22.50;;;10.30;;
56752;SDS011;42627;42.646;23.642;2022-12-26T06:26:39;14.32;;;7.93;;
56752;SDS011;42627;42.646;23.642;2022-12-26T06:28:55;14.30;;;7.03;;
56752;SDS011;42627;42.646;23.642;2022-12-26T06:35:49;26.63;;;10.10;;
56752;SDS011;42627;42.646;23.642;2022-12-26T06:37:51;25.13;;;11.15;;
56752;SDS011;42627;42.646;23.642;2022-12-26T06:39:52;26.27;;;10.90;;
56752;SDS011;42627;42.646;23.642;2022-12-26T06:41:53;23.30;;;11.57;;
56752;SDS011;42627;42.646;23.642;2022-12-26T06:43:57;22.08;;;12.05;;
56752;SDS011;42627;42.646;23.642;2022-12-26T06:45:59;30.73;;;13.93;;
56752;SDS011;42627;42.646;23.642;2022-12-26T06:48:01;45.40;;;17.83;;
56752;SDS011;42627;42.646;23.642;2022-12-26T08:04:27;10.35;;;4.10;;
56752;SDS011;42627;42.646;23.642;2022-12-26T08:06:28;7.60;;;4.32;;
56752;SDS011;42627;42.646;23.642;2022-12-26T08:08:32;4.65;;;2.60;;
56752;SDS011;42627;42.646;23.642;2022-12-26T08:10:33;5.38;;;2.35;;
56752;SDS011;42627;42.646;23.642;2022-12-26T08:12:34;9.10;;;3.00;;
56752;SDS011;42627;42.646;23.642;2022-12-26T08:14:35;6.95;;;2.60;;
56752;SDS011;42627;42.646;23.642;2022-12-26T08:16:39;5.80;;;2.67;;
56752;SDS011;42627;42.646;23.642;2022-12-26T08:18:41;4.43;;;2.80;;
56752;SDS011;42627;42.646;23.642;2022-12-26T08:20:42;7.40;;;2.85;;
56752;SDS011;42627;42.646;23.642;2022-12-26T08:22:43;11.93;;;4.80;;
56752;SDS011;42627;42.646;23.642;2022-12-26T08:24:44;10.80;;;5.38;;
56752;SDS011;42627;42.646;23.642;2022-12-26T08:26:46;10.70;;;6.65;;
56752;SDS011;42627;42.646;23.642;2022-12-26T08:28:48;14.05;;;5.40;;
56752;SDS011;42627;42.646;23.642;2022-12-26T08:30:53;15.88;;;5.00;;
56752;SDS011;42627;42.646;23.642;2022-12-26T08:32:54;11.75;;;6.28;;
56752;SDS011;42627;42.646;23.642;2022-12-26T08:34:55;12.90;;;6.38;;
56752;SDS011;42627;42.646;23.642;2022-12-26T08:36:56;14.57;;;6.20;;
56752;SDS011;42627;42.646;23.642;2022-12-26T08:38:57;12.45;;;5.63;;
56752;SDS011;42627;42.646;23.642;2022-12-26T08:41:01;17.20;;;6.65;;
56752;SDS011;42627;42.646;23.642;2022-12-26T08:43:02;16.48;;;7.00;;
56752;SDS011;42627;42.646;23.642;2022-12-26T08:45:03;15.02;;;5.35;;
56752;SDS011;42627;42.646;23.642;2022-12-26T08:47:06;13.27;;;6.70;;
56752;SDS011;42627;42.646;23.642;2022-12-26T08:49:07;17.83;;;7.00;;
56752;SDS011;42627;42.646;23.642;2022-12-26T08:51:10;12.07;;;5.07;;
56752;SDS011;42627;42.646;23.642;2022-12-26T08:53:12;12.20;;;5.45;;
56752;SDS011;42627;42.646;23.642;2022-12-26T08:55:13;12.85;;;6.28;;
56752;SDS011;42627;42.646;23.642;2022-12-26T08:57:14;10.65;;;4.88;;
56752;SDS011;42627;42.646;23.642;2022-12-26T08:59:17;11.48;;;4.40;;
56752;SDS011;42627;42.646;23.642;2022-12-26T09:01:27;9.27;;;4.90;;
56752;SDS011;42627;42.646;23.642;2022-12-26T09:03:31;12.50;;;4.50;;
56752;SDS011;42627;42.646;23.642;2022-12-26T09:05:32;12.10;;;4.43;;
56752;SDS011;42627;42.646;23.642;2022-12-26T09:07:33;11.85;;;5.65;;
56752;SDS011;42627;42.646;23.642;2022-12-26T09:09:34;11.15;;;4.72;;
56752;SDS011;42627;42.646;23.642;2022-12-26T09:11:35;9.10;;;3.67;;
56752;SDS011;42627;42.646;23.642;2022-12-26T09:13:37;9.23;;;4.28;;
56752;SDS011;42627;42.646;23.642;2022-12-26T09:15:38;7.25;;;2.85;;
56752;SDS011;42627;42.646;23.642;2022-12-26T09:17:42;7.72;;;3.75;;
56752;SDS011;42627;42.646;23.642;2022-12-26T09:19:45;7.93;;;3.58;;
56752;SDS011;42627;42.646;23.642;2022-12-26T09:21:47;6.82;;;3.53;;
56752;SDS011;42627;42.646;23.642;2022-12-26T09:23:48;11.80;;;3.97;;
56752;SDS011;42627;42.646;23.642;2022-12-26T09:25:49;10.35;;;5.07;;
56752;SDS011;42627;42.646;23.642;2022-12-26T09:27:56;13.18;;;5.57;;
56752;SDS011;42627;42.646;23.642;2022-12-26T09:29:58;7.50;;;3.92;;
56752;SDS011;42627;42.646;23.642;2022-12-26T09:32:00;12.13;;;4.88;;
56752;SDS011;42627;42.646;23.642;2022-12-26T09:34:03;8.50;;;3.97;;
56752;SDS011;42627;42.646;23.642;2022-12-26T09:36:05;9.48;;;4.03;;
56752;SDS011;42627;42.646;23.642;2022-12-26T09:38:07;8.90;;;3.65;;
56752;SDS011;42627;42.646;23.642;2022-12-26T09:40:10;8.52;;;3.67;;
56752;SDS011;42627;42.646;23.642;2022-12-26T09:46:43;5.78;;;3.17;;
56752;SDS011;42627;42.646;23.642;2022-12-26T09:49:22;6.55;;;3.03;;
56752;SDS011;42627;42.646;23.642;2022-12-26T09:51:16;8.65;;;4.50;;
56752;SDS011;42627;42.646;23.642;2022-12-26T09:53:18;7.07;;;3.55;;
56752;SDS011;42627;42.646;23.642;2022-12-26T09:59:53;9.82;;;3.92;;
56752;SDS011;42627;42.646;23.642;2022-12-26T10:01:55;9.45;;;4.28;;
56752;SDS011;42627;42.646;23.642;2022-12-26T10:03:57;11.43;;;5.35;;
56752;SDS011;42627;42.646;23.642;2022-12-26T10:08:22;11.02;;;4.00;;
56752;SDS011;42627;42.646;23.642;2022-12-26T10:10:35;11.75;;;4.40;;
56752;SDS011;42627;42.646;23.642;2022-12-26T10:12:48;9.05;;;4.40;;
56752;SDS011;42627;42.646;23.642;2022-12-26T10:14:52;11.93;;;5.30;;
56752;SDS011;42627;42.646;23.642;2022-12-26T10:17:08;8.63;;;4.63;;
56752;SDS011;42627;42.646;23.642;2022-12-26T10:23:29;9.43;;;3.88;;
56752;SDS011;42627;42.646;23.642;2022-12-26T10:25:37;10.05;;;4.28;;
56752;SDS011;42627;42.646;23.642;2022-12-26T10:27:41;13.05;;;5.30;;
56752;SDS011;42627;42.646;23.642;2022-12-26T10:29:48;13.27;;;4.93;;
56752;SDS011;42627;42.646;23.642;2022-12-26T10:36:36;11.57;;;5.03;;
56752;SDS011;42627;42.646;23.642;2022-12-26T10:38:42;8.77;;;4.72;;
56752;SDS011;42627;42.646;23.642;2022-12-26T10:40:48;9.80;;;4.55;;
56752;SDS011;42627;42.646;23.642;2022-12-26T10:42:53;12.75;;;5.07;;
56752;SDS011;42627;42.646;23.642;2022-12-26T10:44:56;10.10;;;5.28;;
56752;SDS011;42627;42.646;23.642;2022-12-26T10:47:08;12.15;;;4.68;;
56752;SDS011;42627;42.646;23.642;2022-12-26T10:49:14;8.82;;;4.43;;
56752;SDS011;42627;42.646;23.642;2022-12-26T10:53:26;9.05;;;4.82;;
56752;SDS011;42627;42.646;23.642;2022-12-26T10:55:28;10.02;;;4.35;;
56752;SDS011;42627;42.646;23.642;2022-12-26T10:57:33;9.40;;;4.47;;
56752;SDS011;42627;42.646;23.642;2022-12-26T10:59:45;13.43;;;4.95;;
56752;SDS011;42627;42.646;23.642;2022-12-26T11:01:47;9.52;;;4.80;;
56752;SDS011;42627;42.646;23.642;2022-12-26T11:03:52;13.52;;;4.97;;
56752;SDS011;42627;42.646;23.642;2022-12-26T11:06:03;10.65;;;4.85;;
56752;SDS011;42627;42.646;23.642;2022-12-26T11:08:48;9.07;;;4.10;;
56752;SDS011;42627;42.646;23.642;2022-12-26T11:10:35;9.80;;;4.25;;
56752;SDS011;42627;42.646;23.642;2022-12-26T11:12:41;9.63;;;3.58;;
56752;SDS011;42627;42.646;23.642;2022-12-26T11:14:49;7.72;;;4.18;;
56752;SDS011;42627;42.646;23.642;2022-12-26T11:16:57;8.27;;;3.70;;
56752;SDS011;42627;42.646;23.642;2022-12-26T11:18:58;8.35;;;3.47;;
56752;SDS011;42627;42.646;23.642;2022-12-26T11:21:13;8.55;;;3.67;;
56752;SDS011;42627;42.646;23.642;2022-12-26T11:23:21;9.05;;;3.42;;
56752;SDS011;42627;42.646;23.642;2022-12-26T11:25:27;11.05;;;5.00;;
56752;SDS011;42627;42.646;23.642;2022-12-26T11:27:29;12.20;;;3.42;;
56752;SDS011;42627;42.646;23.642;2022-12-26T11:29:30;8.10;;;4.13;;
56752;SDS011;42627;42.646;23.642;2022-12-26T11:31:31;10.02;;;3.30;;
56752;SDS011;42627;42.646;23.642;2022-12-26T11:33:34;7.45;;;3.58;;
56752;SDS011;42627;42.646;23.642;2022-12-26T11:35:37;5.05;;;2.58;;
56752;SDS011;42627;42.646;23.642;2022-12-26T11:37:44;5.07;;;3.15;;
56752;SDS011;42627;42.646;23.642;2022-12-26T11:39:48;6.25;;;3.40;;
56752;SDS011;42627;42.646;23.642;2022-12-26T11:41:50;9.48;;;3.65;;
56752;SDS011;42627;42.646;23.642;2022-12-26T11:43:52;9.45;;;3.88;;
56752;SDS011;42627;42.646;23.642;2022-12-26T11:45:53;9.30;;;3.75;;
56752;SDS011;42627;42.646;23.642;2022-12-26T11:47:57;9.02;;;4.22;;
56752;SDS011;42627;42.646;23.642;2022-12-26T11:50:01;7.90;;;3.28;;
56752;SDS011;42627;42.646;23.642;2022-12-26T11:54:32;9.80;;;5.13;;
56752;SDS011;42627;42.646;23.642;2022-12-26T11:56:42;8.77;;;3.88;;
56752;SDS011;42627;42.646;23.642;2022-12-26T11:58:43;7.22;;;3.35;;
56752;SDS011;42627;42.646;23.642;2022-12-26T12:02:53;7.90;;;4.50;;
56752;SDS011;42627;42.646;23.642;2022-12-26T12:04:56;7.80;;;3.65;;
56752;SDS011;42627;42.646;23.642;2022-12-26T12:07:03;8.27;;;3.33;;
56752;SDS011;42627;42.646;23.642;2022-12-26T12:09:32;8.00;;;3.92;;
56752;SDS011;42627;42.646;23.642;2022-12-26T12:14:01;8.25;;;3.53;;
56752;SDS011;42627;42.646;23.642;2022-12-26T12:16:16;8.27;;;3.03;;
56752;SDS011;42627;42.646;23.642;2022-12-26T12:25:24;6.47;;;3.05;;
56752;SDS011;42627;42.646;23.642;2022-12-26T12:27:43;8.13;;;3.40;;
56752;SDS011;42627;42.646;23.642;2022-12-26T12:37:01;8.27;;;3.28;;
56752;SDS011;42627;42.646;23.642;2022-12-26T12:54:23;12.60;;;4.70;;
56752;SDS011;42627;42.646;23.642;2022-12-26T13:01:38;9.35;;;4.30;;
56752;SDS011;42627;42.646;23.642;2022-12-26T13:06:27;8.48;;;4.18;;
56752;SDS011;42627;42.646;23.642;2022-12-26T13:09:03;8.30;;;3.60;;
56752;SDS011;42627;42.646;23.642;2022-12-26T13:22:37;4.88;;;2.42;;
56752;SDS011;42627;42.646;23.642;2022-12-26T13:25:00;6.00;;;2.47;;
56752;SDS011;42627;42.646;23.642;2022-12-26T13:30:03;7.28;;;3.33;;
56752;SDS011;42627;42.646;23.642;2022-12-26T13:45:54;10.98;;;4.50;;
56752;SDS011;42627;42.646;23.642;2022-12-26T13:47:56;13.50;;;6.03;;
56752;SDS011;42627;42.646;23.642;2022-12-26T13:49:57;6.60;;;3.30;;
56752;SDS011;42627;42.646;23.642;2022-12-26T13:51:59;8.50;;;3.80;;
56752;SDS011;42627;42.646;23.642;2022-12-26T13:54:22;7.07;;;3.22;;
56752;SDS011;42627;42.646;23.642;2022-12-26T14:01:04;12.45;;;6.70;;
56752;SDS011;42627;42.646;23.642;2022-12-26T14:12:20;10.32;;;5.22;;
56752;SDS011;42627;42.646;23.642;2022-12-26T14:21:30;11.40;;;5.43;;
56752;SDS011;42627;42.646;23.642;2022-12-26T14:24:00;12.40;;;5.25;;
56752;SDS011;42627;42.646;23.642;2022-12-26T14:28:32;14.73;;;6.13;;
56752;SDS011;42627;42.646;23.642;2022-12-26T14:30:49;13.40;;;4.85;;
56752;SDS011;42627;42.646;23.642;2022-12-26T14:37:46;10.32;;;5.57;;
56752;SDS011;42627;42.646;23.642;2022-12-26T14:42:14;10.75;;;4.20;;
56752;SDS011;42627;42.646;23.642;2022-12-26T14:44:55;7.43;;;3.35;;
56752;SDS011;42627;42.646;23.642;2022-12-26T14:46:58;5.88;;;2.92;;
56752;SDS011;42627;42.646;23.642;2022-12-26T14:49:12;10.32;;;3.95;;
56752;SDS011;42627;42.646;23.642;2022-12-26T14:55:41;9.80;;;3.67;;
56752;SDS011;42627;42.646;23.642;2022-12-26T14:57:46;8.90;;;3.28;;
56752;SDS011;42627;42.646;23.642;2022-12-26T15:00:06;6.75;;;3.13;;
56752;SDS011;42627;42.646;23.642;2022-12-26T15:02:27;7.63;;;3.20;;
56752;SDS011;42627;42.646;23.642;2022-12-26T15:09:32;7.20;;;2.90;;
56752;SDS011;42627;42.646;23.642;2022-12-26T15:12:00;10.73;;;3.58;;
56752;SDS011;42627;42.646;23.642;2022-12-26T16:00:52;24.85;;;9.88;;
56752;SDS011;42627;42.646;23.642;2022-12-26T16:09:41;22.85;;;9.48;;
56752;SDS011;42627;42.646;23.642;2022-12-26T16:12:19;21.20;;;8.65;;
56752;SDS011;42627;42.646;23.642;2022-12-26T16:14:43;32.08;;;11.80;;
56752;SDS011;42627;42.646;23.642;2022-12-26T16:16:45;79.88;;;25.60;;
56752;SDS011;42627;42.646;23.642;2022-12-26T16:18:46;89.13;;;30.17;;
56752;SDS011;42627;42.646;23.642;2022-12-26T16:20:47;44.33;;;15.90;;
56752;SDS011;42627;42.646;23.642;2022-12-26T16:23:13;41.45;;;13.35;;
56752;SDS011;42627;42.646;23.642;2022-12-26T16:25:23;59.25;;;18.92;;
56752;SDS011;42627;42.646;23.642;2022-12-26T16:27:27;68.85;;;23.92;;
56752;SDS011;42627;42.646;23.642;2022-12-26T16:29:42;91.10;;;29.05;;
56752;SDS011;42627;42.646;23.642;2022-12-26T16:31:44;69.78;;;23.88;;
56752;SDS011;42627;42.646;23.642;2022-12-26T16:33:45;41.85;;;17.73;;
56752;SDS011;42627;42.646;23.642;2022-12-26T16:35:47;33.13;;;16.58;;
56752;SDS011;42627;42.646;23.642;2022-12-26T16:37:50;40.13;;;16.13;;
56752;SDS011;42627;42.646;23.642;2022-12-26T16:42:11;34.60;;;14.82;;
56752;SDS011;42627;42.646;23.642;2022-12-26T16:44:27;24.33;;;11.25;;
56752;SDS011;42627;42.646;23.642;2022-12-26T16:46:28;17.42;;;9.05;;
56752;SDS011;42627;42.646;23.642;2022-12-26T16:48:30;15.35;;;7.03;;
56752;SDS011;42627;42.646;23.642;2022-12-26T16:50:36;23.45;;;7.50;;
56752;SDS011;42627;42.646;23.642;2022-12-26T16:52:43;17.55;;;6.55;;
56752;SDS011;42627;42.646;23.642;2022-12-26T16:54:47;41.13;;;14.27;;
56752;SDS011;42627;42.646;23.642;2022-12-26T16:57:07;42.88;;;16.95;;
56752;SDS011;42627;42.646;23.642;2022-12-26T17:01:17;27.80;;;11.60;;
56752;SDS011;42627;42.646;23.642;2022-12-26T17:03:23;52.45;;;19.23;;
56752;SDS011;42627;42.646;23.642;2022-12-26T17:05:29;27.63;;;10.85;;
56752;SDS011;42627;42.646;23.642;2022-12-26T17:07:31;85.10;;;29.23;;
56752;SDS011;42627;42.646;23.642;2022-12-26T17:09:44;72.15;;;24.08;;
56752;SDS011;42627;42.646;23.642;2022-12-26T17:12:00;29.02;;;12.88;;
56752;SDS011;42627;42.646;23.642;2022-12-26T17:14:06;30.17;;;12.60;;
56752;SDS011;42627;42.646;23.642;2022-12-26T17:16:20;15.45;;;8.50;;
56752;SDS011;42627;42.646;23.642;2022-12-26T17:18:40;15.30;;;7.78;;
56752;SDS011;42627;42.646;23.642;2022-12-26T17:20:42;28.33;;;10.38;;
56752;SDS011;42627;42.646;23.642;2022-12-26T17:22:43;44.92;;;16.52;;
56752;SDS011;42627;42.646;23.642;2022-12-26T17:24:45;59.15;;;23.42;;
56752;SDS011;42627;42.646;23.642;2022-12-26T17:26:52;67.30;;;25.75;;
56752;SDS011;42627;42.646;23.642;2022-12-26T17:28:56;91.80;;;31.00;;
56752;SDS011;42627;42.646;23.642;2022-12-26T17:33:11;87.53;;;29.63;;
56752;SDS011;42627;42.646;23.642;2022-12-26T17:35:14;78.25;;;28.92;;
56752;SDS011;42627;42.646;23.642;2022-12-26T17:37:21;92.20;;;30.17;;
56752;SDS011;42627;42.646;23.642;2022-12-26T17:39:23;84.85;;;29.83;;
56752;SDS011;42627;42.646;23.642;2022-12-26T17:41:25;59.97;;;26.40;;
56752;SDS011;42627;42.646;23.642;2022-12-26T17:43:29;74.00;;;28.02;;
56752;SDS011;42627;42.646;23.642;2022-12-26T17:45:31;74.70;;;26.88;;